Cunningham, Washington
Current Conditions -  °F | °C
As of 11:52 AM on Thursday 18 Dec 2014 (Local Time) from KMWH Reporting Station
Haze Haze  
Wind Chill: 35°   Ceiling: 700
Heat Index: 39°   Visibility: 4mi
Dew Point: 37°   Wind: 6mph
Humidity: 93%   Direction: 130°SE
Pressure: 30.01"   Gusts: NA
Location:  46.82°N, 118.81°W
Report Text: KMWH 181952Z 13005KT 4SM BR OVC007 04/03 A3001 RMK AO2 CIG 006V009 SLP171 T00390028
Loading
Personal Weather Stations






























Interactive Weather Map New forecast layout! Learn more

10-Day Weather Forecast

Advertisements
Track Severe Weather on mobile